sensor_id;sensor_type;location;lat;lon;timestamp;pressure;altitude;pressure_sealevel;temperature;humidity
45991;BME280;31721;41.740;-88.000;2023-01-29T00:02:17;99229.36;;;-2.33;58.01
45991;BME280;31721;41.740;-88.000;2023-01-29T00:04:45;99235.15;;;-2.30;57.93
45991;BME280;31721;41.740;-88.000;2023-01-29T00:07:13;99235.94;;;-2.47;57.95
45991;BME280;31721;41.740;-88.000;2023-01-29T00:09:41;99248.18;;;-2.62;58.63
45991;BME280;31721;41.740;-88.000;2023-01-29T00:12:09;99255.40;;;-2.17;57.79
45991;BME280;31721;41.740;-88.000;2023-01-29T00:14:37;99261.21;;;-2.00;57.58
45991;BME280;31721;41.740;-88.000;2023-01-29T00:17:05;99275.57;;;-2.03;57.61
45991;BME280;31721;41.740;-88.000;2023-01-29T00:19:32;99277.10;;;-2.22;58.00
45991;BME280;31721;41.740;-88.000;2023-01-29T00:21:59;99278.65;;;-2.16;58.71
45991;BME280;31721;41.740;-88.000;2023-01-29T00:24:27;99274.11;;;-2.27;57.98
45991;BME280;31721;41.740;-88.000;2023-01-29T00:26:55;99267.31;;;-2.22;58.63
45991;BME280;31721;41.740;-88.000;2023-01-29T00:29:23;99254.60;;;-2.03;58.44
45991;BME280;31721;41.740;-88.000;2023-01-29T00:31:50;99253.00;;;-1.86;57.82
45991;BME280;31721;41.740;-88.000;2023-01-29T00:34:18;99248.97;;;-2.01;58.27
45991;BME280;31721;41.740;-88.000;2023-01-29T00:36:46;99240.50;;;-2.00;58.66
45991;BME280;31721;41.740;-88.000;2023-01-29T00:39:14;99245.36;;;-2.09;58.07
45991;BME280;31721;41.740;-88.000;2023-01-29T00:41:42;99245.53;;;-2.07;57.99
45991;BME280;31721;41.740;-88.000;2023-01-29T00:44:10;99240.72;;;-1.93;58.19
45991;BME280;31721;41.740;-88.000;2023-01-29T00:46:38;99230.06;;;-1.85;58.23
45991;BME280;31721;41.740;-88.000;2023-01-29T00:49:06;99227.46;;;-1.91;58.02
45991;BME280;31721;41.740;-88.000;2023-01-29T00:51:35;99218.47;;;-1.95;58.23
45991;BME280;31721;41.740;-88.000;2023-01-29T00:54:04;99213.39;;;-1.99;58.79
45991;BME280;31721;41.740;-88.000;2023-01-29T00:56:34;99207.50;;;-2.01;58.70
45991;BME280;31721;41.740;-88.000;2023-01-29T00:59:03;99200.91;;;-2.00;58.62
45991;BME280;31721;41.740;-88.000;2023-01-29T01:01:31;99199.06;;;-1.68;58.57
45991;BME280;31721;41.740;-88.000;2023-01-29T01:03:58;99198.97;;;-2.04;58.92
45991;BME280;31721;41.740;-88.000;2023-01-29T01:06:26;99195.91;;;-1.85;58.67
45991;BME280;31721;41.740;-88.000;2023-01-29T01:08:53;99188.15;;;-1.91;58.95
45991;BME280;31721;41.740;-88.000;2023-01-29T01:11:21;99180.46;;;-1.90;58.69
45991;BME280;31721;41.740;-88.000;2023-01-29T01:13:49;99181.52;;;-2.01;60.30
45991;BME280;31721;41.740;-88.000;2023-01-29T01:16:17;99171.85;;;-1.94;59.91
45991;BME280;31721;41.740;-88.000;2023-01-29T01:18:45;99171.93;;;-1.90;59.36
45991;BME280;31721;41.740;-88.000;2023-01-29T01:21:13;99169.73;;;-1.96;60.04
45991;BME280;31721;41.740;-88.000;2023-01-29T01:23:42;99166.95;;;-1.92;59.92
45991;BME280;31721;41.740;-88.000;2023-01-29T01:26:10;99163.39;;;-1.93;60.45
45991;BME280;31721;41.740;-88.000;2023-01-29T01:28:38;99165.63;;;-1.71;59.26
45991;BME280;31721;41.740;-88.000;2023-01-29T01:31:10;99165.72;;;-1.91;60.20
45991;BME280;31721;41.740;-88.000;2023-01-29T01:33:38;99158.24;;;-1.86;59.89
45991;BME280;31721;41.740;-88.000;2023-01-29T01:36:07;99155.40;;;-1.78;59.29
45991;BME280;31721;41.740;-88.000;2023-01-29T01:38:35;99147.86;;;-1.87;59.85
45991;BME280;31721;41.740;-88.000;2023-01-29T01:41:03;99136.54;;;-1.51;59.57
45991;BME280;31721;41.740;-88.000;2023-01-29T01:43:48;99121.29;;;-1.81;59.69
45991;BME280;31721;41.740;-88.000;2023-01-29T01:46:16;99111.56;;;-1.64;59.96
45991;BME280;31721;41.740;-88.000;2023-01-29T01:48:46;99118.04;;;-1.64;59.92
45991;BME280;31721;41.740;-88.000;2023-01-29T01:51:15;99128.59;;;-1.58;59.43
45991;BME280;31721;41.740;-88.000;2023-01-29T01:53:48;99125.64;;;-1.65;59.65
45991;BME280;31721;41.740;-88.000;2023-01-29T01:56:22;99119.38;;;-1.45;59.46
45991;BME280;31721;41.740;-88.000;2023-01-29T01:58:53;99109.42;;;-1.65;59.44
45991;BME280;31721;41.740;-88.000;2023-01-29T02:01:24;99115.63;;;-1.74;60.08
45991;BME280;31721;41.740;-88.000;2023-01-29T02:03:56;99117.96;;;-1.80;60.41
45991;BME280;31721;41.740;-88.000;2023-01-29T02:06:26;99116.26;;;-1.73;60.13
45991;BME280;31721;41.740;-88.000;2023-01-29T02:08:57;99117.57;;;-1.80;59.88
45991;BME280;31721;41.740;-88.000;2023-01-29T02:11:29;99120.66;;;-1.64;59.63
45991;BME280;31721;41.740;-88.000;2023-01-29T02:13:57;99117.16;;;-1.58;59.44
45991;BME280;31721;41.740;-88.000;2023-01-29T02:16:25;99116.63;;;-1.60;59.29
45991;BME280;31721;41.740;-88.000;2023-01-29T02:18:54;99118.22;;;-1.50;59.44
45991;BME280;31721;41.740;-88.000;2023-01-29T02:21:48;99114.38;;;-1.39;58.97
45991;BME280;31721;41.740;-88.000;2023-01-29T02:24:38;99109.56;;;-1.25;58.90
45991;BME280;31721;41.740;-88.000;2023-01-29T02:27:14;99114.54;;;-1.39;59.24
45991;BME280;31721;41.740;-88.000;2023-01-29T02:29:51;99122.81;;;-1.60;59.90
45991;BME280;31721;41.740;-88.000;2023-01-29T02:32:28;99112.26;;;-1.51;59.79
45991;BME280;31721;41.740;-88.000;2023-01-29T02:35:09;99110.57;;;-1.73;59.87
45991;BME280;31721;41.740;-88.000;2023-01-29T02:37:47;99103.68;;;-1.71;59.69
45991;BME280;31721;41.740;-88.000;2023-01-29T02:40:26;99094.81;;;-1.67;59.87
45991;BME280;31721;41.740;-88.000;2023-01-29T02:43:03;99089.97;;;-1.67;59.46
45991;BME280;31721;41.740;-88.000;2023-01-29T02:45:39;99090.31;;;-1.42;59.41
45991;BME280;31721;41.740;-88.000;2023-01-29T02:48:12;99097.00;;;-1.67;59.60
45991;BME280;31721;41.740;-88.000;2023-01-29T02:50:44;99100.92;;;-1.68;59.67
45991;BME280;31721;41.740;-88.000;2023-01-29T02:53:17;99105.99;;;-1.50;59.57
45991;BME280;31721;41.740;-88.000;2023-01-29T02:55:50;99112.93;;;-1.52;59.44
45991;BME280;31721;41.740;-88.000;2023-01-29T02:58:26;99115.61;;;-1.60;59.71
45991;BME280;31721;41.740;-88.000;2023-01-29T03:01:02;99111.58;;;-1.53;59.52
45991;BME280;31721;41.740;-88.000;2023-01-29T03:03:37;99104.43;;;-1.44;59.53
45991;BME280;31721;41.740;-88.000;2023-01-29T03:06:11;99103.14;;;-1.60;60.29
45991;BME280;31721;41.740;-88.000;2023-01-29T03:08:43;99102.24;;;-1.64;60.37
45991;BME280;31721;41.740;-88.000;2023-01-29T03:11:15;99097.72;;;-1.71;60.97
45991;BME280;31721;41.740;-88.000;2023-01-29T03:13:46;99092.93;;;-1.44;60.02
45991;BME280;31721;41.740;-88.000;2023-01-29T03:16:21;99090.96;;;-1.24;59.87
45991;BME280;31721;41.740;-88.000;2023-01-29T03:18:55;99086.55;;;-1.36;60.37
45991;BME280;31721;41.740;-88.000;2023-01-29T03:21:29;99088.53;;;-1.45;60.41
45991;BME280;31721;41.740;-88.000;2023-01-29T03:23:59;99090.57;;;-1.29;60.14
45991;BME280;31721;41.740;-88.000;2023-01-29T03:26:27;99091.30;;;-1.47;61.44
45991;BME280;31721;41.740;-88.000;2023-01-29T03:28:55;99095.46;;;-1.49;60.75
45991;BME280;31721;41.740;-88.000;2023-01-29T03:31:25;99093.23;;;-1.43;60.80
45991;BME280;31721;41.740;-88.000;2023-01-29T03:33:58;99095.16;;;-1.19;60.70
45991;BME280;31721;41.740;-88.000;2023-01-29T03:36:31;99100.41;;;-1.27;60.93
45991;BME280;31721;41.740;-88.000;2023-01-29T03:39:00;99085.06;;;-1.32;61.32
45991;BME280;31721;41.740;-88.000;2023-01-29T03:41:32;99074.82;;;-1.23;61.02
45991;BME280;31721;41.740;-88.000;2023-01-29T03:44:09;99075.60;;;-1.31;61.38
45991;BME280;31721;41.740;-88.000;2023-01-29T03:46:45;99071.88;;;-1.30;60.81
45991;BME280;31721;41.740;-88.000;2023-01-29T03:49:20;99066.81;;;-1.36;61.02
45991;BME280;31721;41.740;-88.000;2023-01-29T03:51:55;99063.42;;;-1.30;61.16
45991;BME280;31721;41.740;-88.000;2023-01-29T03:54:30;99057.18;;;-1.28;61.68
45991;BME280;31721;41.740;-88.000;2023-01-29T03:57:10;99050.70;;;-1.39;61.34
45991;BME280;31721;41.740;-88.000;2023-01-29T03:59:43;99044.19;;;-1.43;61.37
45991;BME280;31721;41.740;-88.000;2023-01-29T04:02:19;99037.49;;;-1.20;61.63
45991;BME280;31721;41.740;-88.000;2023-01-29T04:04:51;99032.79;;;-1.09;61.16
45991;BME280;31721;41.740;-88.000;2023-01-29T04:07:21;99034.58;;;-0.96;61.43
45991;BME280;31721;41.740;-88.000;2023-01-29T04:09:54;99034.46;;;-0.94;61.13
45991;BME280;31721;41.740;-88.000;2023-01-29T04:12:25;99030.56;;;-0.92;61.13
45991;BME280;31721;41.740;-88.000;2023-01-29T04:14:58;99025.36;;;-1.07;61.11
45991;BME280;31721;41.740;-88.000;2023-01-29T04:17:32;99030.67;;;-0.92;61.01
45991;BME280;31721;41.740;-88.000;2023-01-29T04:20:02;99028.60;;;-0.87;61.09
45991;BME280;31721;41.740;-88.000;2023-01-29T04:22:32;99024.81;;;-1.00;60.91
45991;BME280;31721;41.740;-88.000;2023-01-29T04:25:03;99014.46;;;-1.04;61.53
45991;BME280;31721;41.740;-88.000;2023-01-29T04:27:42;99016.71;;;-0.99;61.17
45991;BME280;31721;41.740;-88.000;2023-01-29T04:30:22;99030.05;;;-0.63;61.07
45991;BME280;31721;41.740;-88.000;2023-01-29T04:33:00;99043.14;;;-0.46;60.79
45991;BME280;31721;41.740;-88.000;2023-01-29T04:35:34;99036.22;;;-0.89;60.89
45991;BME280;31721;41.740;-88.000;2023-01-29T04:38:11;99017.22;;;-1.21;61.22
45991;BME280;31721;41.740;-88.000;2023-01-29T04:40:50;99007.82;;;-1.01;61.31
45991;BME280;31721;41.740;-88.000;2023-01-29T04:43:27;99022.50;;;-1.03;61.31
45991;BME280;31721;41.740;-88.000;2023-01-29T04:46:09;99038.15;;;-0.58;61.10
45991;BME280;31721;41.740;-88.000;2023-01-29T04:48:46;99037.52;;;-0.74;60.77
45991;BME280;31721;41.740;-88.000;2023-01-29T04:51:24;99030.69;;;-0.71;60.72
45991;BME280;31721;41.740;-88.000;2023-01-29T04:53:58;99033.37;;;-0.71;60.90
45991;BME280;31721;41.740;-88.000;2023-01-29T04:56:34;99036.09;;;-0.61;60.77
45991;BME280;31721;41.740;-88.000;2023-01-29T04:59:07;99033.81;;;-0.78;60.73
45991;BME280;31721;41.740;-88.000;2023-01-29T05:01:37;99031.72;;;-0.75;60.85
45991;BME280;31721;41.740;-88.000;2023-01-29T05:04:08;99034.29;;;-0.80;60.74
45991;BME280;31721;41.740;-88.000;2023-01-29T05:06:38;99026.77;;;-0.93;61.44
45991;BME280;31721;41.740;-88.000;2023-01-29T05:09:07;99027.70;;;-0.93;61.15
45991;BME280;31721;41.740;-88.000;2023-01-29T05:11:36;99026.71;;;-0.85;60.97
45991;BME280;31721;41.740;-88.000;2023-01-29T05:14:06;99032.29;;;-0.72;60.87
45991;BME280;31721;41.740;-88.000;2023-01-29T05:16:41;99027.62;;;-0.75;61.11
45991;BME280;31721;41.740;-88.000;2023-01-29T05:19:09;99020.80;;;-0.77;60.85
45991;BME280;31721;41.740;-88.000;2023-01-29T05:21:38;99018.44;;;-0.72;61.00
45991;BME280;31721;41.740;-88.000;2023-01-29T05:24:09;99023.30;;;-0.60;61.09
45991;BME280;31721;41.740;-88.000;2023-01-29T05:26:36;99031.02;;;-0.59;60.95
45991;BME280;31721;41.740;-88.000;2023-01-29T05:29:04;99030.44;;;-0.61;60.98
45991;BME280;31721;41.740;-88.000;2023-01-29T05:31:31;99021.66;;;-0.92;61.15
45991;BME280;31721;41.740;-88.000;2023-01-29T05:33:59;99023.41;;;-0.84;61.33
45991;BME280;31721;41.740;-88.000;2023-01-29T05:36:26;99022.81;;;-0.76;61.17
45991;BME280;31721;41.740;-88.000;2023-01-29T05:38:54;99023.49;;;-0.73;61.26
45991;BME280;31721;41.740;-88.000;2023-01-29T05:41:22;99024.37;;;-0.61;61.16
45991;BME280;31721;41.740;-88.000;2023-01-29T05:43:50;99033.42;;;-0.72;61.17
45991;BME280;31721;41.740;-88.000;2023-01-29T05:46:18;99042.44;;;-0.57;61.17
45991;BME280;31721;41.740;-88.000;2023-01-29T05:48:45;99043.30;;;-0.52;61.18
45991;BME280;31721;41.740;-88.000;2023-01-29T05:51:13;99032.30;;;-0.57;61.14
45991;BME280;31721;41.740;-88.000;2023-01-29T05:53:41;99024.71;;;-0.61;61.50
45991;BME280;31721;41.740;-88.000;2023-01-29T05:56:08;99022.22;;;-0.49;61.41
45991;BME280;31721;41.740;-88.000;2023-01-29T05:58:37;99006.81;;;-0.75;61.85
45991;BME280;31721;41.740;-88.000;2023-01-29T06:01:09;99014.38;;;-0.46;61.58
45991;BME280;31721;41.740;-88.000;2023-01-29T06:03:36;99017.00;;;-0.62;61.42
45991;BME280;31721;41.740;-88.000;2023-01-29T06:06:05;99011.02;;;-0.54;61.34
45991;BME280;31721;41.740;-88.000;2023-01-29T06:08:32;99001.54;;;-0.72;61.61
45991;BME280;31721;41.740;-88.000;2023-01-29T06:11:00;98999.49;;;-0.69;61.93
45991;BME280;31721;41.740;-88.000;2023-01-29T06:13:28;98998.64;;;-0.54;61.57
45991;BME280;31721;41.740;-88.000;2023-01-29T06:15:55;99006.40;;;-0.34;61.64
45991;BME280;31721;41.740;-88.000;2023-01-29T06:18:23;99012.93;;;-0.22;61.55
45991;BME280;31721;41.740;-88.000;2023-01-29T06:20:51;99020.75;;;-0.18;61.21
45991;BME280;31721;41.740;-88.000;2023-01-29T06:23:19;99020.70;;;-0.19;61.17
45991;BME280;31721;41.740;-88.000;2023-01-29T06:25:47;99008.53;;;-0.45;61.16
45991;BME280;31721;41.740;-88.000;2023-01-29T06:28:14;99003.68;;;-0.47;61.42
45991;BME280;31721;41.740;-88.000;2023-01-29T06:30:42;99014.69;;;-0.37;61.39
45991;BME280;31721;41.740;-88.000;2023-01-29T06:33:09;99011.65;;;-0.39;61.39
45991;BME280;31721;41.740;-88.000;2023-01-29T06:35:37;99010.73;;;-0.68;62.05
45991;BME280;31721;41.740;-88.000;2023-01-29T06:38:05;99009.41;;;-0.69;61.93
45991;BME280;31721;41.740;-88.000;2023-01-29T06:40:32;99010.08;;;-0.91;62.27
45991;BME280;31721;41.740;-88.000;2023-01-29T06:43:00;99013.62;;;-0.76;62.10
45991;BME280;31721;41.740;-88.000;2023-01-29T06:45:28;99013.16;;;-0.60;61.57
45991;BME280;31721;41.740;-88.000;2023-01-29T06:47:56;99013.03;;;-0.90;61.77
45991;BME280;31721;41.740;-88.000;2023-01-29T06:50:23;99025.03;;;-0.80;61.96
45991;BME280;31721;41.740;-88.000;2023-01-29T06:52:51;99034.29;;;-0.65;61.72
45991;BME280;31721;41.740;-88.000;2023-01-29T06:55:18;99039.19;;;-0.68;61.77
45991;BME280;31721;41.740;-88.000;2023-01-29T06:57:45;99024.29;;;-0.43;61.65
45991;BME280;31721;41.740;-88.000;2023-01-29T07:00:14;99008.66;;;-0.54;61.49
45991;BME280;31721;41.740;-88.000;2023-01-29T07:02:42;99005.73;;;-0.46;61.61
45991;BME280;31721;41.740;-88.000;2023-01-29T07:05:09;99002.20;;;-0.42;61.73
45991;BME280;31721;41.740;-88.000;2023-01-29T07:07:37;99003.96;;;-0.49;61.81
45991;BME280;31721;41.740;-88.000;2023-01-29T07:10:06;99002.55;;;-0.57;61.79
45991;BME280;31721;41.740;-88.000;2023-01-29T07:12:34;99009.15;;;-0.42;61.67
45991;BME280;31721;41.740;-88.000;2023-01-29T07:15:01;99016.42;;;-0.35;61.70
45991;BME280;31721;41.740;-88.000;2023-01-29T07:17:29;99017.90;;;-0.85;62.26
45991;BME280;31721;41.740;-88.000;2023-01-29T07:19:57;99014.40;;;-0.70;61.91
45991;BME280;31721;41.740;-88.000;2023-01-29T07:22:24;99016.55;;;-0.64;61.71
45991;BME280;31721;41.740;-88.000;2023-01-29T07:24:53;99024.34;;;-0.58;61.66
45991;BME280;31721;41.740;-88.000;2023-01-29T07:27:21;99029.10;;;-0.49;61.53
45991;BME280;31721;41.740;-88.000;2023-01-29T07:29:48;99033.01;;;-0.63;61.86
45991;BME280;31721;41.740;-88.000;2023-01-29T07:32:16;99039.31;;;-0.64;61.80
45991;BME280;31721;41.740;-88.000;2023-01-29T07:34:43;99038.10;;;-0.61;61.83
45991;BME280;31721;41.740;-88.000;2023-01-29T07:37:11;99038.12;;;-0.65;61.59
45991;BME280;31721;41.740;-88.000;2023-01-29T07:39:39;99042.43;;;-0.54;61.51
45991;BME280;31721;41.740;-88.000;2023-01-29T07:42:07;99034.82;;;-0.61;61.66
45991;BME280;31721;41.740;-88.000;2023-01-29T07:44:35;99035.19;;;-0.50;61.60
45991;BME280;31721;41.740;-88.000;2023-01-29T07:47:02;99032.59;;;-0.67;61.64
45991;BME280;31721;41.740;-88.000;2023-01-29T07:49:30;99032.63;;;-0.51;61.49
45991;BME280;31721;41.740;-88.000;2023-01-29T07:51:58;99036.21;;;-0.47;61.48
45991;BME280;31721;41.740;-88.000;2023-01-29T07:54:26;99039.48;;;-0.64;61.48
45991;BME280;31721;41.740;-88.000;2023-01-29T07:56:54;99042.88;;;-0.67;61.55
45991;BME280;31721;41.740;-88.000;2023-01-29T07:59:21;99031.42;;;-0.40;61.40
45991;BME280;31721;41.740;-88.000;2023-01-29T08:01:49;99031.68;;;-0.40;61.46
45991;BME280;31721;41.740;-88.000;2023-01-29T08:04:17;99036.86;;;-0.42;61.26
45991;BME280;31721;41.740;-88.000;2023-01-29T08:06:45;99036.97;;;-0.41;61.46
45991;BME280;31721;41.740;-88.000;2023-01-29T08:09:13;99039.87;;;-0.52;61.38
45991;BME280;31721;41.740;-88.000;2023-01-29T08:11:40;99044.85;;;-0.54;61.50
45991;BME280;31721;41.740;-88.000;2023-01-29T08:14:08;99051.89;;;-0.52;61.88
45991;BME280;31721;41.740;-88.000;2023-01-29T08:16:36;99063.87;;;-2.01;64.34
45991;BME280;31721;41.740;-88.000;2023-01-29T08:19:04;99066.05;;;-1.95;63.19
45991;BME280;31721;41.740;-88.000;2023-01-29T08:21:32;99073.92;;;-2.09;62.30
45991;BME280;31721;41.740;-88.000;2023-01-29T08:24:00;99072.94;;;-2.74;63.17
45991;BME280;31721;41.740;-88.000;2023-01-29T08:26:27;99072.38;;;-2.89;63.51
45991;BME280;31721;41.740;-88.000;2023-01-29T08:28:55;99071.01;;;-2.83;63.14
45991;BME280;31721;41.740;-88.000;2023-01-29T08:31:22;99056.35;;;-3.49;64.31
45991;BME280;31721;41.740;-88.000;2023-01-29T08:33:52;99045.27;;;-3.05;63.37
45991;BME280;31721;41.740;-88.000;2023-01-29T08:36:20;99041.42;;;-3.66;63.97
45991;BME280;31721;41.740;-88.000;2023-01-29T08:38:47;99044.46;;;-3.50;63.92
45991;BME280;31721;41.740;-88.000;2023-01-29T08:41:15;99048.24;;;-3.17;63.02
45991;BME280;31721;41.740;-88.000;2023-01-29T08:43:43;99049.66;;;-3.93;64.43
45991;BME280;31721;41.740;-88.000;2023-01-29T08:46:12;99058.71;;;-3.27;63.05
45991;BME280;31721;41.740;-88.000;2023-01-29T08:48:40;99057.97;;;-3.68;63.47
45991;BME280;31721;41.740;-88.000;2023-01-29T08:51:08;99060.60;;;-3.59;63.22
45991;BME280;31721;41.740;-88.000;2023-01-29T08:53:35;99059.39;;;-3.48;63.10
45991;BME280;31721;41.740;-88.000;2023-01-29T08:56:03;99061.04;;;-3.38;62.55
45991;BME280;31721;41.740;-88.000;2023-01-29T08:58:31;99076.40;;;-3.88;63.55
45991;BME280;31721;41.740;-88.000;2023-01-29T09:01:05;99073.77;;;-3.44;62.54
45991;BME280;31721;41.740;-88.000;2023-01-29T09:03:33;99073.50;;;-3.74;62.98
45991;BME280;31721;41.740;-88.000;2023-01-29T09:06:00;99083.60;;;-4.52;64.41
45991;BME280;31721;41.740;-88.000;2023-01-29T09:08:27;99084.30;;;-4.28;64.24
45991;BME280;31721;41.740;-88.000;2023-01-29T09:10:58;99083.55;;;-4.42;64.76
45991;BME280;31721;41.740;-88.000;2023-01-29T09:13:26;99079.91;;;-3.83;63.09
45991;BME280;31721;41.740;-88.000;2023-01-29T09:15:53;99080.16;;;-3.55;62.61
45991;BME280;31721;41.740;-88.000;2023-01-29T09:18:21;99084.38;;;-3.75;63.04
45991;BME280;31721;41.740;-88.000;2023-01-29T09:20:48;99086.07;;;-3.65;62.91
45991;BME280;31721;41.740;-88.000;2023-01-29T09:23:16;99095.45;;;-3.67;62.61
45991;BME280;31721;41.740;-88.000;2023-01-29T09:25:44;99096.40;;;-4.13;63.35
45991;BME280;31721;41.740;-88.000;2023-01-29T09:28:11;99097.96;;;-4.74;65.16
45991;BME280;31721;41.740;-88.000;2023-01-29T09:30:39;99095.98;;;-4.26;63.36
45991;BME280;31721;41.740;-88.000;2023-01-29T09:33:07;99091.17;;;-4.16;63.64
45991;BME280;31721;41.740;-88.000;2023-01-29T09:35:35;99085.45;;;-4.39;63.92
45991;BME280;31721;41.740;-88.000;2023-01-29T09:38:02;99088.11;;;-3.85;62.73
45991;BME280;31721;41.740;-88.000;2023-01-29T09:40:34;99095.01;;;-4.16;63.17
45991;BME280;31721;41.740;-88.000;2023-01-29T09:43:09;99094.29;;;-4.48;63.99
45991;BME280;31721;41.740;-88.000;2023-01-29T09:45:43;99115.71;;;-4.27;63.45
45991;BME280;31721;41.740;-88.000;2023-01-29T09:48:16;99127.13;;;-4.40;63.83
45991;BME280;31721;41.740;-88.000;2023-01-29T09:50:46;99141.53;;;-4.72;64.19
45991;BME280;31721;41.740;-88.000;2023-01-29T09:53:20;99150.87;;;-4.75;64.61
45991;BME280;31721;41.740;-88.000;2023-01-29T09:55:53;99149.70;;;-5.01;64.98
45991;BME280;31721;41.740;-88.000;2023-01-29T09:58:27;99138.99;;;-4.47;63.98
45991;BME280;31721;41.740;-88.000;2023-01-29T10:01:03;99134.16;;;-4.31;63.55
45991;BME280;31721;41.740;-88.000;2023-01-29T10:03:56;99138.70;;;-4.60;63.59
45991;BME280;31721;41.740;-88.000;2023-01-29T10:06:41;99151.17;;;-5.17;65.03
45991;BME280;31721;41.740;-88.000;2023-01-29T10:14:13;99144.62;;;-4.60;63.37
45991;BME280;31721;41.740;-88.000;2023-01-29T10:16:55;99147.73;;;-5.01;64.18
45991;BME280;31721;41.740;-88.000;2023-01-29T10:19:42;99157.69;;;-4.84;63.85
45991;BME280;31721;41.740;-88.000;2023-01-29T10:22:37;99165.68;;;-5.36;65.02
45991;BME280;31721;41.740;-88.000;2023-01-29T10:25:09;99168.76;;;-4.87;63.73
45991;BME280;31721;41.740;-88.000;2023-01-29T10:27:40;99174.04;;;-5.06;63.76
45991;BME280;31721;41.740;-88.000;2023-01-29T10:30:21;99183.34;;;-4.90;63.61
45991;BME280;31721;41.740;-88.000;2023-01-29T10:32:50;99183.47;;;-4.86;63.43
45991;BME280;31721;41.740;-88.000;2023-01-29T10:35:22;99188.92;;;-5.18;64.05
45991;BME280;31721;41.740;-88.000;2023-01-29T10:37:52;99193.79;;;-4.77;63.41
45991;BME280;31721;41.740;-88.000;2023-01-29T10:40:21;99200.56;;;-4.71;63.09
45991;BME280;31721;41.740;-88.000;2023-01-29T10:42:59;99198.58;;;-4.67;63.11
45991;BME280;31721;41.740;-88.000;2023-01-29T10:45:36;99196.03;;;-4.56;62.75
45991;BME280;31721;41.740;-88.000;2023-01-29T10:48:39;99195.60;;;-4.71;63.24
45991;BME280;31721;41.740;-88.000;2023-01-29T10:51:24;99192.81;;;-4.85;63.32
45991;BME280;31721;41.740;-88.000;2023-01-29T10:54:03;99196.64;;;-5.48;64.55
45991;BME280;31721;41.740;-88.000;2023-01-29T10:56:42;99207.89;;;-5.06;63.62
45991;BME280;31721;41.740;-88.000;2023-01-29T10:59:29;99197.35;;;-4.93;63.35
45991;BME280;31721;41.740;-88.000;2023-01-29T11:01:59;99197.93;;;-4.67;62.79
45991;BME280;31721;41.740;-88.000;2023-01-29T11:04:27;99202.31;;;-4.63;62.65
45991;BME280;31721;41.740;-88.000;2023-01-29T11:06:57;99200.57;;;-5.01;63.16
45991;BME280;31721;41.740;-88.000;2023-01-29T11:09:29;99196.83;;;-4.82;63.05
45991;BME280;31721;41.740;-88.000;2023-01-29T11:12:01;99189.83;;;-5.01;63.32
45991;BME280;31721;41.740;-88.000;2023-01-29T11:14:32;99180.80;;;-4.72;62.76
45991;BME280;31721;41.740;-88.000;2023-01-29T11:17:03;99184.29;;;-4.85;62.67
45991;BME280;31721;41.740;-88.000;2023-01-29T11:19:38;99194.65;;;-4.60;62.69
45991;BME280;31721;41.740;-88.000;2023-01-29T11:22:12;99195.77;;;-4.94;62.97
45991;BME280;31721;41.740;-88.000;2023-01-29T11:24:40;99200.14;;;-5.41;63.64
45991;BME280;31721;41.740;-88.000;2023-01-29T11:27:16;99208.47;;;-4.76;62.86
45991;BME280;31721;41.740;-88.000;2023-01-29T11:29:49;99213.14;;;-4.68;62.80
45991;BME280;31721;41.740;-88.000;2023-01-29T11:32:25;99222.80;;;-5.06;63.16
45991;BME280;31721;41.740;-88.000;2023-01-29T11:34:58;99230.66;;;-4.87;62.91
45991;BME280;31721;41.740;-88.000;2023-01-29T11:37:33;99245.15;;;-4.38;62.44
45991;BME280;31721;41.740;-88.000;2023-01-29T11:40:04;99256.01;;;-4.91;62.69
45991;BME280;31721;41.740;-88.000;2023-01-29T11:42:55;99265.10;;;-5.13;63.26
45991;BME280;31721;41.740;-88.000;2023-01-29T11:45:38;99278.27;;;-5.36;63.54
45991;BME280;31721;41.740;-88.000;2023-01-29T11:48:13;99283.23;;;-5.35;63.72
45991;BME280;31721;41.740;-88.000;2023-01-29T11:50:42;99287.74;;;-5.40;63.78
45991;BME280;31721;41.740;-88.000;2023-01-29T11:53:32;99287.17;;;-5.66;64.88
45991;BME280;31721;41.740;-88.000;2023-01-29T11:56:03;99287.29;;;-5.62;64.53
45991;BME280;31721;41.740;-88.000;2023-01-29T11:58:34;99294.26;;;-5.18;63.73
45991;BME280;31721;41.740;-88.000;2023-01-29T12:01:02;99289.98;;;-5.15;63.45
45991;BME280;31721;41.740;-88.000;2023-01-29T12:03:34;99308.40;;;-5.63;64.13
45991;BME280;31721;41.740;-88.000;2023-01-29T12:06:05;99317.19;;;-5.93;64.56
45991;BME280;31721;41.740;-88.000;2023-01-29T12:08:37;99327.73;;;-6.32;65.58
45991;BME280;31721;41.740;-88.000;2023-01-29T12:11:11;99333.89;;;-5.73;64.12
45991;BME280;31721;41.740;-88.000;2023-01-29T12:13:40;99340.67;;;-5.66;64.14
45991;BME280;31721;41.740;-88.000;2023-01-29T12:16:16;99349.31;;;-5.60;63.76
45991;BME280;31721;41.740;-88.000;2023-01-29T12:18:48;99371.33;;;-5.61;63.69
45991;BME280;31721;41.740;-88.000;2023-01-29T12:21:21;99374.48;;;-5.50;63.69
45991;BME280;31721;41.740;-88.000;2023-01-29T12:23:58;99376.45;;;-6.32;65.13
45991;BME280;31721;41.740;-88.000;2023-01-29T12:26:31;99371.30;;;-5.78;64.16
45991;BME280;31721;41.740;-88.000;2023-01-29T12:29:15;99374.32;;;-5.98;64.43
45991;BME280;31721;41.740;-88.000;2023-01-29T12:31:50;99372.33;;;-5.93;64.06
45991;BME280;31721;41.740;-88.000;2023-01-29T12:34:26;99375.99;;;-6.20;64.10
45991;BME280;31721;41.740;-88.000;2023-01-29T12:37:03;99379.55;;;-6.08;63.87
45991;BME280;31721;41.740;-88.000;2023-01-29T12:39:35;99385.89;;;-6.25;64.37
45991;BME280;31721;41.740;-88.000;2023-01-29T12:42:09;99392.99;;;-6.23;63.54
45991;BME280;31721;41.740;-88.000;2023-01-29T12:44:43;99394.00;;;-6.36;64.43
45991;BME280;31721;41.740;-88.000;2023-01-29T12:47:18;99392.93;;;-6.01;63.82
45991;BME280;31721;41.740;-88.000;2023-01-29T12:49:51;99396.29;;;-5.58;63.21
45991;BME280;31721;41.740;-88.000;2023-01-29T12:52:26;99408.11;;;-6.07;63.59
45991;BME280;31721;41.740;-88.000;2023-01-29T12:55:11;99419.19;;;-6.02;63.32
45991;BME280;31721;41.740;-88.000;2023-01-29T12:57:47;99418.59;;;-6.47;64.02
45991;BME280;31721;41.740;-88.000;2023-01-29T13:00:20;99412.34;;;-6.06;63.75
45991;BME280;31721;41.740;-88.000;2023-01-29T13:02:55;99417.01;;;-5.94;63.36
45991;BME280;31721;41.740;-88.000;2023-01-29T13:05:27;99430.55;;;-6.67;64.54
45991;BME280;31721;41.740;-88.000;2023-01-29T13:08:02;99431.22;;;-6.55;64.23